createdAt,value
2022-08-12T00:02:44.811Z,2.80
2022-08-12T00:05:31.437Z,3.33
2022-08-12T00:08:17.571Z,2.67
2022-08-12T00:11:14.930Z,2.67
2022-08-12T00:14:00.785Z,2.80
2022-08-12T00:16:48.187Z,2.88
2022-08-12T00:19:33.429Z,2.75
2022-08-12T00:22:19.839Z,2.97
2022-08-12T00:25:05.775Z,3.05
2022-08-12T00:27:51.154Z,2.78
2022-08-12T00:30:36.513Z,2.55
2022-08-12T00:33:22.416Z,2.75
2022-08-12T00:36:14.873Z,3.28
2022-08-12T00:39:17.560Z,3.20
2022-08-12T00:42:04.461Z,3.00
2022-08-12T00:44:30.972Z,2.80
2022-08-12T00:46:59.926Z,2.80
2022-08-12T00:49:28.594Z,2.33
2022-08-12T00:52:06.855Z,3.10
2022-08-12T00:54:58.278Z,2.88
2022-08-12T00:57:32.345Z,2.65
2022-08-12T01:00:04.855Z,2.45
2022-08-12T01:02:34.093Z,2.78
2022-08-12T01:05:22.294Z,2.45
2022-08-12T01:08:09.790Z,2.85
2022-08-12T01:10:57.760Z,2.40
2022-08-12T01:13:25.541Z,2.60
2022-08-12T01:15:55.962Z,2.35
2022-08-12T01:18:25.565Z,2.38
2022-08-12T01:20:51.883Z,2.50
2022-08-12T01:23:37.249Z,2.50
2022-08-12T01:26:06.681Z,3.55
2022-08-12T01:28:35.190Z,4.10
2022-08-12T01:31:05.766Z,2.70
2022-08-12T01:33:39.940Z,2.80
2022-08-12T01:36:10.205Z,2.55
2022-08-12T01:38:38.038Z,3.33
2022-08-12T01:41:06.291Z,2.78
2022-08-12T01:43:34.135Z,2.70
2022-08-12T01:46:29.462Z,2.88
2022-08-12T01:49:07.487Z,2.45
2022-08-12T01:52:15.666Z,2.70
2022-08-12T01:54:29.079Z,2.50
2022-08-12T01:57:10.902Z,2.70
2022-08-12T01:59:59.423Z,3.15
2022-08-12T02:02:36.347Z,2.65
2022-08-12T02:05:42.593Z,2.80
2022-08-12T02:08:52.533Z,2.78
2022-08-12T02:11:29.037Z,3.45
2022-08-12T02:14:08.967Z,3.25
2022-08-12T02:17:01.791Z,2.25
2022-08-12T02:19:59.253Z,2.60
2022-08-12T02:22:28.442Z,3.10
2022-08-12T02:25:13.560Z,2.78
2022-08-12T02:27:42.708Z,2.88
2022-08-12T02:30:12.255Z,2.65
2022-08-12T02:32:41.752Z,2.50
2022-08-12T02:35:11.218Z,2.70
2022-08-12T02:37:40.717Z,2.40
2022-08-12T02:40:12.047Z,2.50
2022-08-12T02:42:49.920Z,2.60
2022-08-12T02:45:22.355Z,2.70
2022-08-12T02:47:58.070Z,2.95
2022-08-12T02:50:29.345Z,3.00
2022-08-12T02:52:57.090Z,2.47
2022-08-12T02:55:28.893Z,2.85
2022-08-12T02:58:04.194Z,2.75
2022-08-12T03:00:34.950Z,2.90
2022-08-12T03:03:05.719Z,2.53
2022-08-12T03:05:44.030Z,2.50
2022-08-12T03:08:22.357Z,2.80
2022-08-12T03:11:19.548Z,2.63
2022-08-12T03:13:51.039Z,2.38
2022-08-12T03:16:20.587Z,2.50
2022-08-12T03:18:49.086Z,2.88
2022-08-12T03:21:58.068Z,2.80
2022-08-12T03:24:06.806Z,2.53
2022-08-12T03:26:35.808Z,2.67
2022-08-12T03:29:06.530Z,2.90
2022-08-12T03:31:33.690Z,2.25
2022-08-12T03:34:09.361Z,2.55
2022-08-12T03:36:38.080Z,2.40
2022-08-12T03:39:36.831Z,2.70
2022-08-12T03:42:12.459Z,2.50
2022-08-12T03:45:21.749Z,2.38
2022-08-12T03:48:22.812Z,2.30
2022-08-12T03:51:08.216Z,3.08
2022-08-12T03:53:54.675Z,3.38
2022-08-12T03:56:39.559Z,2.38
2022-08-12T03:59:26.148Z,2.58
2022-08-12T04:01:57.079Z,2.70
2022-08-12T04:04:34.644Z,3.30
2022-08-12T04:07:10.545Z,2.97
2022-08-12T04:09:42.576Z,3.03
2022-08-12T04:12:32.500Z,2.40
2022-08-12T04:15:00.796Z,2.70
2022-08-12T04:17:28.061Z,2.92
2022-08-12T04:19:56.417Z,2.58
2022-08-12T04:22:26.315Z,3.25
2022-08-12T04:24:53.802Z,2.53
2022-08-12T04:27:20.509Z,3.05
2022-08-12T04:30:30.689Z,2.72
2022-08-12T04:32:42.294Z,2.53
2022-08-12T04:35:11.069Z,2.95
2022-08-12T04:37:58.535Z,2.90
2022-08-12T04:40:28.024Z,4.75
2022-08-12T04:42:55.752Z,3.60
2022-08-12T04:45:22.708Z,3.00
2022-08-12T04:47:49.396Z,3.05
2022-08-12T04:50:34.556Z,3.80
2022-08-12T04:53:05.789Z,3.40
2022-08-12T04:55:34.593Z,4.13
2022-08-12T04:58:01.057Z,3.13
2022-08-12T05:00:28.099Z,2.80
2022-08-12T05:02:54.783Z,2.97
2022-08-12T05:05:24.237Z,3.45
2022-08-12T05:07:54.143Z,3.10
2022-08-12T05:10:21.671Z,2.72
2022-08-12T05:13:02.299Z,3.50
2022-08-12T05:15:30.471Z,3.05
2022-08-12T05:17:59.906Z,3.83
2022-08-12T05:20:28.440Z,3.92
2022-08-12T05:23:13.403Z,4.32
2022-08-12T05:25:42.916Z,3.53
2022-08-12T05:28:09.711Z,4.57
2022-08-12T05:30:36.616Z,3.60
2022-08-12T05:33:05.330Z,2.97
2022-08-12T05:35:42.945Z,2.78
2022-08-12T05:38:30.593Z,3.25
2022-08-12T05:40:57.519Z,2.55
2022-08-12T05:43:24.781Z,3.00
2022-08-12T05:45:51.304Z,3.70
2022-08-12T05:48:18.330Z,2.60
2022-08-12T05:50:46.141Z,2.65
2022-08-12T05:53:13.224Z,3.05
2022-08-12T05:55:40.724Z,2.58
2022-08-12T05:58:10.561Z,3.10
2022-08-12T06:00:37.895Z,2.85
2022-08-12T06:03:05.899Z,3.20
2022-08-12T06:05:51.970Z,2.85
2022-08-12T06:08:21.838Z,2.97
2022-08-12T06:10:50.177Z,3.30
2022-08-12T06:13:28.274Z,3.00
2022-08-12T06:16:04.639Z,3.13
2022-08-12T06:18:31.249Z,3.03
2022-08-12T06:21:01.709Z,2.80
2022-08-12T06:23:29.535Z,2.90
2022-08-12T06:25:56.482Z,2.88
2022-08-12T06:28:23.484Z,3.10
2022-08-12T06:31:08.656Z,2.90
2022-08-12T06:33:55.376Z,3.05
2022-08-12T06:36:29.475Z,2.67
2022-08-12T06:42:10.732Z,3.00
2022-08-12T06:44:29.002Z,2.60
2022-08-12T06:46:56.880Z,3.20
2022-08-12T06:49:25.075Z,2.80
2022-08-12T06:51:56.962Z,3.30
2022-08-12T06:54:29.819Z,3.00
2022-08-12T06:57:05.233Z,2.75
2022-08-12T06:59:48.585Z,2.60
2022-08-12T07:02:15.074Z,2.88
2022-08-12T07:04:42.045Z,2.88
2022-08-12T07:07:09.571Z,2.63
2022-08-12T07:10:01.421Z,2.50
2022-08-12T07:12:28.138Z,2.60
2022-08-12T07:14:56.660Z,2.50
2022-08-12T07:17:23.305Z,2.80
2022-08-12T07:19:51.663Z,2.78
2022-08-12T07:22:18.632Z,2.78
2022-08-12T07:25:05.092Z,2.63
2022-08-12T07:27:36.840Z,2.78
2022-08-12T07:30:05.115Z,5.32
2022-08-12T07:32:31.889Z,2.78
2022-08-12T07:34:58.427Z,2.88
2022-08-12T07:37:24.945Z,2.47
2022-08-12T07:40:00.011Z,2.97
2022-08-12T07:42:27.946Z,2.45
2022-08-12T07:44:55.760Z,2.65
2022-08-12T07:47:23.231Z,2.30
2022-08-12T07:50:05.562Z,2.25
2022-08-12T07:52:38.187Z,2.60
2022-08-12T07:55:05.789Z,2.17
2022-08-12T07:57:32.779Z,2.85
2022-08-12T08:00:05.487Z,2.78
2022-08-12T08:02:36.157Z,2.38
2022-08-12T08:05:03.887Z,2.40
2022-08-12T08:07:31.042Z,2.00
2022-08-12T08:10:00.011Z,2.67
2022-08-12T08:12:47.161Z,2.22
2022-08-12T08:15:15.503Z,1.92
2022-08-12T08:18:05.234Z,2.30
2022-08-12T08:20:35.134Z,2.38
2022-08-12T08:23:05.625Z,2.47
2022-08-12T08:25:36.302Z,2.00
2022-08-12T08:28:16.172Z,2.40
2022-08-12T08:30:45.857Z,2.20
2022-08-12T08:33:22.868Z,2.40
2022-08-12T08:35:54.399Z,2.00
2022-08-12T08:38:33.380Z,1.88
2022-08-12T08:42:17.008Z,2.10
2022-08-12T08:44:11.773Z,2.70
2022-08-12T08:46:39.944Z,2.58
2022-08-12T08:49:07.365Z,1.92
2022-08-12T08:51:34.277Z,1.92
2022-08-12T08:54:00.808Z,2.15
2022-08-12T08:56:29.370Z,2.17
2022-08-12T08:58:57.464Z,2.25
2022-08-12T09:01:24.258Z,2.20
2022-08-12T09:05:07.961Z,2.40
2022-08-12T09:06:53.857Z,2.42
2022-08-12T09:09:21.144Z,2.30
2022-08-12T09:12:11.536Z,2.25
2022-08-12T09:14:43.480Z,2.08
2022-08-12T09:17:21.324Z,1.70
2022-08-12T09:22:35.359Z,2.00
2022-08-12T09:25:01.793Z,2.95
2022-08-12T09:30:41.829Z,1.90
2022-08-12T09:33:18.683Z,2.60
2022-08-12T09:36:04.912Z,2.17
2022-08-12T09:38:33.654Z,2.28
2022-08-12T09:42:34.331Z,2.22
2022-08-12T09:44:37.927Z,2.00
2022-08-12T09:46:54.333Z,1.80
2022-08-12T09:49:24.488Z,2.35
2022-08-12T09:51:55.673Z,2.50
2022-08-12T09:54:34.532Z,1.90
2022-08-12T09:58:44.564Z,1.98
2022-08-12T10:00:13.623Z,2.40
2022-08-12T10:03:01.615Z,1.80
2022-08-12T10:06:27.093Z,1.80
2022-08-12T10:08:21.854Z,1.98
2022-08-12T10:11:08.415Z,1.75
2022-08-12T10:13:46.225Z,1.42
2022-08-12T10:16:21.685Z,1.80
2022-08-12T10:18:55.185Z,1.77
2022-08-12T10:21:35.470Z,2.08
2022-08-12T10:24:09.694Z,1.65
2022-08-12T10:26:57.955Z,1.60
2022-08-12T10:30:38.841Z,1.38
2022-08-12T10:32:44.720Z,1.60
2022-08-12T10:35:15.298Z,1.65
2022-08-12T10:38:34.383Z,1.60
2022-08-12T10:40:33.032Z,1.98
2022-08-12T10:43:19.835Z,2.65
2022-08-12T10:45:49.296Z,2.10
2022-08-12T10:48:21.343Z,2.08
2022-08-12T10:51:01.254Z,1.90
2022-08-12T10:53:45.776Z,1.60
2022-08-12T10:56:17.181Z,2.15
2022-08-12T10:58:47.961Z,2.92
2022-08-12T11:01:26.014Z,1.80
2022-08-12T11:04:24.251Z,1.85
2022-08-12T11:07:05.629Z,1.98
2022-08-12T11:09:54.248Z,1.88
2022-08-12T11:12:56.933Z,1.73
2022-08-12T11:15:21.232Z,1.55
2022-08-12T11:17:53.598Z,1.90
2022-08-12T11:20:28.996Z,2.50
2022-08-12T11:23:25.601Z,1.88
2022-08-12T11:25:57.745Z,2.67
2022-08-12T11:28:34.523Z,1.70
2022-08-12T11:31:03.142Z,2.30
2022-08-12T11:34:06.138Z,2.03
2022-08-12T11:36:17.201Z,1.85
2022-08-12T11:38:50.376Z,1.50
2022-08-12T11:41:28.193Z,1.92
2022-08-12T11:44:42.931Z,2.75
2022-08-12T11:46:51.293Z,1.10
2022-08-12T11:49:26.849Z,1.60
2022-08-12T11:52:01.271Z,1.70
2022-08-12T11:54:29.831Z,1.50
2022-08-12T11:57:02.119Z,1.42
2022-08-12T12:02:20.103Z,1.75
2022-08-12T12:04:52.486Z,1.70
2022-08-12T12:10:01.493Z,1.75
2022-08-12T12:12:27.897Z,1.65
2022-08-12T12:14:55.916Z,2.13
2022-08-12T12:17:24.298Z,1.38
2022-08-12T12:19:52.969Z,1.90
2022-08-12T12:22:26.832Z,1.45
2022-08-12T12:24:54.396Z,1.67
2022-08-12T12:28:03.704Z,1.50
2022-08-12T12:30:17.892Z,1.90
2022-08-12T12:32:55.248Z,1.50
2022-08-12T12:36:18.946Z,1.40
2022-08-12T12:38:12.973Z,1.40
2022-08-12T12:40:50.594Z,1.60
2022-08-12T12:43:42.495Z,1.42
2022-08-12T12:46:05.357Z,1.48
2022-08-12T12:48:31.759Z,1.17
2022-08-12T12:51:48.889Z,1.40
2022-08-12T12:54:06.647Z,1.48
2022-08-12T12:59:03.421Z,1.48
2022-08-12T13:01:31.888Z,1.52
2022-08-12T13:04:02.400Z,1.50
2022-08-12T13:06:31.441Z,1.58
2022-08-12T13:09:03.195Z,1.58
2022-08-12T13:11:41.868Z,1.00
2022-08-12T13:14:29.064Z,1.30
2022-08-12T13:17:02.688Z,1.40
2022-08-12T13:19:36.669Z,1.20
2022-08-12T13:22:18.167Z,1.23
2022-08-12T13:24:55.654Z,1.38
2022-08-12T13:27:28.391Z,1.55
2022-08-12T13:30:04.153Z,1.50
2022-08-12T13:32:33.217Z,1.73
2022-08-12T13:35:04.483Z,1.38
2022-08-12T13:37:56.940Z,1.60
2022-08-12T13:40:25.502Z,1.30
2022-08-12T13:42:57.496Z,1.30
2022-08-12T13:45:26.454Z,1.55
2022-08-12T13:48:00.114Z,1.65
2022-08-12T13:50:32.663Z,1.40
2022-08-12T13:53:06.164Z,1.60
2022-08-12T13:55:59.289Z,1.73
2022-08-12T13:58:27.668Z,1.40
2022-08-12T14:00:55.678Z,1.35
2022-08-12T14:03:23.459Z,1.13
2022-08-12T14:08:28.380Z,1.40
2022-08-12T14:11:02.240Z,0.98
2022-08-12T14:14:03.109Z,1.40
2022-08-12T14:16:37.674Z,1.55
2022-08-12T14:19:10.438Z,1.85
2022-08-12T14:21:59.847Z,1.52
2022-08-12T14:24:36.899Z,1.35
2022-08-12T14:27:08.969Z,2.08
2022-08-12T14:29:55.741Z,1.30
2022-08-12T14:32:23.745Z,1.25
2022-08-12T14:34:51.480Z,1.35
2022-08-12T14:37:56.642Z,1.25
2022-08-12T14:40:06.469Z,1.30
2022-08-12T14:42:32.918Z,1.70
2022-08-12T14:45:01.394Z,1.08
2022-08-12T14:47:35.119Z,1.48
2022-08-12T14:50:42.242Z,1.38
2022-08-12T14:55:43.442Z,1.13
2022-08-12T14:58:25.225Z,1.50
2022-08-12T15:01:11.415Z,1.58
2022-08-12T15:03:52.327Z,1.80
2022-08-12T15:06:39.834Z,1.52
2022-08-12T15:09:09.297Z,1.60
2022-08-12T15:11:54.508Z,1.80
2022-08-12T15:16:48.555Z,1.70
2022-08-12T15:20:07.496Z,1.65
2022-08-12T15:22:37.407Z,1.48
2022-08-12T15:24:49.649Z,1.27
2022-08-12T15:27:22.092Z,1.63
2022-08-12T15:29:57.870Z,1.50
2022-08-12T15:32:31.711Z,1.25
2022-08-12T15:35:00.330Z,1.63
2022-08-12T15:37:58.885Z,1.63
2022-08-12T15:40:13.727Z,2.58
2022-08-12T15:42:40.614Z,1.77
2022-08-12T15:45:08.601Z,1.25
2022-08-12T15:47:47.932Z,1.10
2022-08-12T15:50:23.154Z,1.35
2022-08-12T15:52:54.694Z,1.20
2022-08-12T15:55:24.326Z,1.35
2022-08-12T15:58:01.589Z,1.10
2022-08-12T16:00:37.539Z,1.30
2022-08-12T16:03:08.490Z,1.30
2022-08-12T16:06:13.249Z,1.25
2022-08-12T16:08:42.307Z,1.30
2022-08-12T16:11:18.750Z,1.27
2022-08-12T16:13:45.490Z,1.15
2022-08-12T16:16:23.509Z,1.48
2022-08-12T16:18:52.620Z,1.95
2022-08-12T16:21:52.880Z,1.13
2022-08-12T16:24:10.717Z,1.10
2022-08-12T16:26:40.032Z,1.02
2022-08-12T16:29:14.700Z,0.90
2022-08-12T16:31:44.462Z,1.45
2022-08-12T16:34:40.037Z,1.20
2022-08-12T16:37:07.342Z,1.20
2022-08-12T16:39:59.666Z,1.10
2022-08-12T16:42:22.355Z,1.13
2022-08-12T16:44:49.523Z,1.05
2022-08-12T16:47:16.575Z,1.20
2022-08-12T16:49:45.327Z,1.35
2022-08-12T16:52:14.398Z,1.15
2022-08-12T16:54:44.298Z,1.50
2022-08-12T16:57:11.150Z,1.17
2022-08-12T16:59:54.194Z,1.20
2022-08-12T17:02:31.812Z,1.10
2022-08-12T17:05:03.251Z,1.27
2022-08-12T17:07:36.757Z,1.33
2022-08-12T17:10:09.735Z,1.00
2022-08-12T17:12:38.702Z,1.30
2022-08-12T17:15:51.215Z,1.17
2022-08-12T17:18:15.424Z,1.25
2022-08-12T17:20:46.821Z,1.17
2022-08-12T17:23:17.889Z,1.27
2022-08-12T17:25:52.352Z,1.17
2022-08-12T17:28:23.937Z,1.25
2022-08-12T17:30:59.496Z,1.67
2022-08-12T17:33:27.651Z,0.95
2022-08-12T17:35:58.258Z,1.45
2022-08-12T17:38:24.824Z,1.20
2022-08-12T17:40:51.708Z,1.17
2022-08-12T17:43:56.124Z,1.10
2022-08-12T17:46:08.313Z,1.00
2022-08-12T17:48:55.527Z,1.30
2022-08-12T17:51:25.249Z,1.20
2022-08-12T17:54:11.706Z,0.80
2022-08-12T17:56:40.813Z,1.10
2022-08-12T17:59:12.491Z,1.05
2022-08-12T18:01:44.350Z,1.05
2022-08-12T18:06:54.015Z,1.02
2022-08-12T18:09:24.455Z,1.00
2022-08-12T18:12:24.712Z,1.08
2022-08-12T18:15:02.226Z,1.02
2022-08-12T18:17:30.419Z,0.98
2022-08-12T18:20:04.995Z,1.00
2022-08-12T18:22:35.565Z,1.30
2022-08-12T18:25:06.912Z,0.90
2022-08-12T18:28:16.192Z,1.20
2022-08-12T18:30:45.304Z,1.08
2022-08-12T18:33:23.946Z,0.95
2022-08-12T18:35:53.744Z,0.98
2022-08-12T18:38:24.648Z,1.07
2022-08-12T18:41:10.998Z,1.00
2022-08-12T18:43:59.185Z,1.00
2022-08-12T18:46:32.089Z,0.80
2022-08-12T18:49:17.667Z,0.80
2022-08-12T18:52:02.474Z,0.90
2022-08-12T18:54:41.587Z,0.70
2022-08-12T18:57:45.635Z,1.35
2022-08-12T19:00:07.504Z,1.67
2022-08-12T19:02:40.347Z,1.90
2022-08-12T19:05:10.369Z,1.45
2022-08-12T19:07:49.734Z,1.77
2022-08-12T19:10:26.969Z,1.35
2022-08-12T19:13:21.081Z,1.48
2022-08-12T19:15:54.798Z,3.53
2022-08-12T19:18:29.429Z,3.38
2022-08-12T19:20:58.745Z,2.22
2022-08-12T19:23:33.824Z,2.70
2022-08-12T19:26:05.083Z,3.85
2022-08-12T19:28:34.647Z,3.13
2022-08-12T19:31:56.175Z,2.45
2022-08-12T19:37:38.446Z,3.60
2022-08-12T19:40:30.584Z,2.45
2022-08-12T19:43:01.980Z,2.65
2022-08-12T19:45:42.320Z,2.47
2022-08-12T19:48:16.532Z,2.70
2022-08-12T19:50:45.454Z,2.53
2022-08-12T19:53:18.582Z,2.17
2022-08-12T19:55:51.675Z,2.58
2022-08-12T19:58:21.324Z,2.30
2022-08-12T20:00:53.446Z,2.10
2022-08-12T20:03:38.505Z,2.08
2022-08-12T20:06:13.892Z,1.88
2022-08-12T20:08:56.164Z,1.67
2022-08-12T20:12:09.599Z,1.52
2022-08-12T20:14:17.840Z,1.50
2022-08-12T20:16:51.630Z,1.20
2022-08-12T20:19:23.387Z,1.65
2022-08-12T20:21:50.951Z,1.95
2022-08-12T20:24:19.103Z,1.83
2022-08-12T20:26:46.316Z,1.60
2022-08-12T20:29:13.434Z,1.80
2022-08-12T20:31:40.745Z,1.55
2022-08-12T20:34:08.789Z,1.73
2022-08-12T20:36:44.286Z,2.17
2022-08-12T20:41:44.962Z,1.58
2022-08-12T20:46:46.927Z,1.63
2022-08-12T20:49:17.245Z,1.50
2022-08-12T20:51:54.774Z,1.58
2022-08-12T20:54:22.991Z,2.30
2022-08-12T20:57:01.961Z,1.77
2022-08-12T20:59:48.029Z,1.80
2022-08-12T21:02:24.656Z,1.85
2022-08-12T21:05:19.547Z,1.50
2022-08-12T21:07:47.680Z,1.42
2022-08-12T21:10:18.282Z,1.73
2022-08-12T21:12:48.243Z,1.30
2022-08-12T21:15:17.076Z,1.40
2022-08-12T21:18:11.762Z,1.40
2022-08-12T21:20:52.113Z,1.20
2022-08-12T21:23:21.246Z,1.70
2022-08-12T21:25:48.193Z,1.30
2022-08-12T21:28:18.803Z,1.38
2022-08-12T21:31:11.760Z,1.08
2022-08-12T21:33:58.770Z,2.42
2022-08-12T21:36:22.728Z,1.45
2022-08-12T21:39:01.905Z,1.13
2022-08-12T21:41:45.916Z,1.33
2022-08-12T21:44:24.522Z,1.37
2022-08-12T21:47:21.669Z,1.35
2022-08-12T21:50:03.261Z,1.20
2022-08-12T21:52:36.220Z,1.38
2022-08-12T21:55:08.661Z,1.35
2022-08-12T21:57:53.718Z,1.40
2022-08-12T22:00:32.056Z,1.33
2022-08-12T22:04:02.061Z,1.45
2022-08-12T22:06:20.374Z,1.20
2022-08-12T22:09:00.703Z,2.00
2022-08-12T22:11:41.780Z,1.37
2022-08-12T22:14:10.256Z,1.40
2022-08-12T22:16:46.892Z,2.05
2022-08-12T22:19:17.875Z,1.70
2022-08-12T22:21:48.220Z,1.45
2022-08-12T22:24:27.032Z,1.50
2022-08-12T22:27:14.366Z,1.33
2022-08-12T22:30:16.625Z,1.10
2022-08-12T22:32:51.677Z,1.25
2022-08-12T22:35:55.977Z,1.02
2022-08-12T22:38:25.136Z,1.70
2022-08-12T22:41:03.308Z,1.20
2022-08-12T22:44:00.578Z,1.20
2022-08-12T22:47:08.921Z,1.08
2022-08-12T22:49:37.124Z,1.48
2022-08-12T22:52:23.080Z,1.33
2022-08-12T22:55:03.213Z,1.25
2022-08-12T22:57:49.494Z,1.08
2022-08-12T23:00:27.334Z,1.00
2022-08-12T23:03:02.675Z,1.20
2022-08-12T23:05:57.577Z,1.17
2022-08-12T23:08:21.599Z,1.55
2022-08-12T23:10:49.739Z,1.67
2022-08-12T23:13:42.262Z,0.90
2022-08-12T23:16:27.802Z,0.93
2022-08-12T23:18:59.863Z,1.00
2022-08-12T23:21:40.317Z,0.98
2022-08-12T23:24:16.961Z,1.17
2022-08-12T23:27:03.820Z,1.10
2022-08-12T23:29:43.377Z,1.08
2022-08-12T23:32:45.672Z,1.00
2022-08-12T23:35:07.739Z,1.10
2022-08-12T23:37:47.196Z,1.05
2022-08-12T23:40:22.525Z,1.30
2022-08-12T23:42:51.888Z,1.50
2022-08-12T23:45:20.619Z,1.00
2022-08-12T23:47:58.524Z,0.93
2022-08-12T23:50:26.353Z,1.20
2022-08-12T23:53:05.354Z,1.25
2022-08-12T23:55:35.696Z,1.35
2022-08-12T23:58:20.826Z,1.00
